sensor_id;sensor_type;location;lat;lon;timestamp;P1;durP1;ratioP1;P2;durP2;ratioP2
74679;SDS011;63211;48.548;2.704;2022-12-07T00:01:04;3.58;;;1.52;;
74679;SDS011;63211;48.548;2.704;2022-12-07T00:03:31;3.67;;;1.30;;
74679;SDS011;63211;48.548;2.704;2022-12-07T00:05:59;1.90;;;1.02;;
74679;SDS011;63211;48.548;2.704;2022-12-07T00:08:27;2.10;;;0.98;;
74679;SDS011;63211;48.548;2.704;2022-12-07T00:10:53;2.60;;;1.40;;
74679;SDS011;63211;48.548;2.704;2022-12-07T00:13:20;3.08;;;1.40;;
74679;SDS011;63211;48.548;2.704;2022-12-07T00:15:47;2.92;;;1.50;;
74679;SDS011;63211;48.548;2.704;2022-12-07T00:18:13;2.88;;;1.30;;
74679;SDS011;63211;48.548;2.704;2022-12-07T00:20:40;2.05;;;1.48;;
74679;SDS011;63211;48.548;2.704;2022-12-07T00:23:08;3.30;;;1.55;;
74679;SDS011;63211;48.548;2.704;2022-12-07T00:25:35;2.85;;;1.23;;
74679;SDS011;63211;48.548;2.704;2022-12-07T00:28:01;2.78;;;1.40;;
74679;SDS011;63211;48.548;2.704;2022-12-07T00:30:28;2.65;;;1.20;;
74679;SDS011;63211;48.548;2.704;2022-12-07T00:32:55;2.85;;;1.38;;
74679;SDS011;63211;48.548;2.704;2022-12-07T00:35:21;2.67;;;1.40;;
74679;SDS011;63211;48.548;2.704;2022-12-07T00:37:48;2.05;;;1.38;;
74679;SDS011;63211;48.548;2.704;2022-12-07T00:40:16;3.65;;;1.48;;
74679;SDS011;63211;48.548;2.704;2022-12-07T00:42:43;3.00;;;1.23;;
74679;SDS011;63211;48.548;2.704;2022-12-07T00:45:10;2.95;;;1.50;;
74679;SDS011;63211;48.548;2.704;2022-12-07T00:47:36;3.40;;;1.80;;
74679;SDS011;63211;48.548;2.704;2022-12-07T00:50:03;2.58;;;1.30;;
74679;SDS011;63211;48.548;2.704;2022-12-07T00:52:31;3.28;;;1.65;;
74679;SDS011;63211;48.548;2.704;2022-12-07T00:54:57;3.15;;;1.80;;
74679;SDS011;63211;48.548;2.704;2022-12-07T00:57:25;3.30;;;1.40;;
74679;SDS011;63211;48.548;2.704;2022-12-07T00:59:52;3.08;;;1.35;;
74679;SDS011;63211;48.548;2.704;2022-12-07T01:02:20;3.83;;;1.50;;
74679;SDS011;63211;48.548;2.704;2022-12-07T01:04:47;2.78;;;1.55;;
74679;SDS011;63211;48.548;2.704;2022-12-07T01:07:13;3.53;;;1.70;;
74679;SDS011;63211;48.548;2.704;2022-12-07T01:09:40;2.97;;;1.50;;
74679;SDS011;63211;48.548;2.704;2022-12-07T01:12:06;2.60;;;1.25;;
74679;SDS011;63211;48.548;2.704;2022-12-07T01:14:37;3.50;;;1.73;;
74679;SDS011;63211;48.548;2.704;2022-12-07T01:17:04;2.58;;;1.40;;
74679;SDS011;63211;48.548;2.704;2022-12-07T01:19:31;2.88;;;1.50;;
74679;SDS011;63211;48.548;2.704;2022-12-07T01:21:57;2.95;;;1.35;;
74679;SDS011;63211;48.548;2.704;2022-12-07T01:24:24;3.45;;;1.67;;
74679;SDS011;63211;48.548;2.704;2022-12-07T01:26:50;2.22;;;1.15;;
74679;SDS011;63211;48.548;2.704;2022-12-07T01:29:17;3.10;;;1.38;;
74679;SDS011;63211;48.548;2.704;2022-12-07T01:31:47;3.90;;;1.73;;
74679;SDS011;63211;48.548;2.704;2022-12-07T01:34:15;3.13;;;1.35;;
74679;SDS011;63211;48.548;2.704;2022-12-07T01:36:41;5.47;;;1.70;;
74679;SDS011;63211;48.548;2.704;2022-12-07T01:39:09;2.85;;;1.40;;
74679;SDS011;63211;48.548;2.704;2022-12-07T01:41:36;3.05;;;1.48;;
74679;SDS011;63211;48.548;2.704;2022-12-07T01:44:15;4.20;;;1.70;;
74679;SDS011;63211;48.548;2.704;2022-12-07T01:46:45;3.97;;;1.85;;
74679;SDS011;63211;48.548;2.704;2022-12-07T01:49:16;3.45;;;1.45;;
74679;SDS011;63211;48.548;2.704;2022-12-07T01:51:47;3.25;;;1.23;;
74679;SDS011;63211;48.548;2.704;2022-12-07T01:54:16;3.35;;;1.70;;
74679;SDS011;63211;48.548;2.704;2022-12-07T01:56:45;2.42;;;1.20;;
74679;SDS011;63211;48.548;2.704;2022-12-07T01:59:17;3.00;;;1.70;;
74679;SDS011;63211;48.548;2.704;2022-12-07T02:01:48;2.97;;;1.60;;
74679;SDS011;63211;48.548;2.704;2022-12-07T02:04:14;4.88;;;1.88;;
74679;SDS011;63211;48.548;2.704;2022-12-07T02:06:41;2.83;;;1.70;;
74679;SDS011;63211;48.548;2.704;2022-12-07T02:09:10;2.67;;;1.67;;
74679;SDS011;63211;48.548;2.704;2022-12-07T02:11:38;3.97;;;1.50;;
74679;SDS011;63211;48.548;2.704;2022-12-07T02:14:05;3.60;;;2.03;;
74679;SDS011;63211;48.548;2.704;2022-12-07T02:16:34;3.38;;;1.63;;
74679;SDS011;63211;48.548;2.704;2022-12-07T02:19:19;3.45;;;2.25;;
74679;SDS011;63211;48.548;2.704;2022-12-07T02:22:07;3.85;;;1.67;;
74679;SDS011;63211;48.548;2.704;2022-12-07T02:24:53;4.28;;;1.80;;
74679;SDS011;63211;48.548;2.704;2022-12-07T02:30:13;3.35;;;1.52;;
74679;SDS011;63211;48.548;2.704;2022-12-07T02:32:44;4.10;;;1.90;;
74679;SDS011;63211;48.548;2.704;2022-12-07T02:35:17;3.13;;;1.73;;
74679;SDS011;63211;48.548;2.704;2022-12-07T02:37:52;3.30;;;1.80;;
74679;SDS011;63211;48.548;2.704;2022-12-07T02:40:25;2.72;;;1.35;;
74679;SDS011;63211;48.548;2.704;2022-12-07T02:42:55;3.92;;;1.60;;
74679;SDS011;63211;48.548;2.704;2022-12-07T02:45:29;2.35;;;1.35;;
74679;SDS011;63211;48.548;2.704;2022-12-07T02:47:58;4.15;;;1.42;;
74679;SDS011;63211;48.548;2.704;2022-12-07T02:50:26;3.22;;;1.58;;
74679;SDS011;63211;48.548;2.704;2022-12-07T02:52:54;3.63;;;1.70;;
74679;SDS011;63211;48.548;2.704;2022-12-07T02:55:22;3.45;;;1.45;;
74679;SDS011;63211;48.548;2.704;2022-12-07T02:58:06;3.28;;;1.83;;
74679;SDS011;63211;48.548;2.704;2022-12-07T03:00:52;3.60;;;1.83;;
74679;SDS011;63211;48.548;2.704;2022-12-07T03:03:25;3.42;;;1.67;;
74679;SDS011;63211;48.548;2.704;2022-12-07T03:05:59;3.95;;;1.50;;
74679;SDS011;63211;48.548;2.704;2022-12-07T03:08:41;3.05;;;1.60;;
74679;SDS011;63211;48.548;2.704;2022-12-07T03:11:14;3.22;;;1.50;;
74679;SDS011;63211;48.548;2.704;2022-12-07T03:13:48;3.10;;;1.60;;
74679;SDS011;63211;48.548;2.704;2022-12-07T03:16:22;3.28;;;1.50;;
74679;SDS011;63211;48.548;2.704;2022-12-07T03:18:53;2.83;;;1.65;;
74679;SDS011;63211;48.548;2.704;2022-12-07T03:21:25;2.80;;;1.48;;
74679;SDS011;63211;48.548;2.704;2022-12-07T03:23:55;4.10;;;1.73;;
74679;SDS011;63211;48.548;2.704;2022-12-07T03:26:26;3.35;;;1.75;;
74679;SDS011;63211;48.548;2.704;2022-12-07T03:28:59;5.00;;;1.83;;
74679;SDS011;63211;48.548;2.704;2022-12-07T03:31:32;3.00;;;1.55;;
74679;SDS011;63211;48.548;2.704;2022-12-07T03:34:04;4.15;;;1.63;;
74679;SDS011;63211;48.548;2.704;2022-12-07T03:36:37;3.65;;;1.70;;
74679;SDS011;63211;48.548;2.704;2022-12-07T03:39:13;4.30;;;1.80;;
74679;SDS011;63211;48.548;2.704;2022-12-07T03:41:47;3.22;;;1.70;;
74679;SDS011;63211;48.548;2.704;2022-12-07T03:44:14;3.45;;;1.80;;
74679;SDS011;63211;48.548;2.704;2022-12-07T03:46:44;4.00;;;2.03;;
74679;SDS011;63211;48.548;2.704;2022-12-07T03:49:18;3.72;;;1.38;;
74679;SDS011;63211;48.548;2.704;2022-12-07T03:51:53;3.38;;;1.73;;
74679;SDS011;63211;48.548;2.704;2022-12-07T03:54:24;3.63;;;1.50;;
74679;SDS011;63211;48.548;2.704;2022-12-07T03:56:56;3.35;;;1.60;;
74679;SDS011;63211;48.548;2.704;2022-12-07T03:59:24;4.32;;;1.83;;
74679;SDS011;63211;48.548;2.704;2022-12-07T04:01:54;4.75;;;2.08;;
74679;SDS011;63211;48.548;2.704;2022-12-07T04:04:22;3.53;;;1.63;;
74679;SDS011;63211;48.548;2.704;2022-12-07T04:06:50;4.65;;;1.75;;
74679;SDS011;63211;48.548;2.704;2022-12-07T04:09:17;3.55;;;1.45;;
74679;SDS011;63211;48.548;2.704;2022-12-07T04:11:44;3.22;;;1.85;;
74679;SDS011;63211;48.548;2.704;2022-12-07T04:14:10;3.08;;;1.67;;
74679;SDS011;63211;48.548;2.704;2022-12-07T04:16:47;3.03;;;1.80;;
74679;SDS011;63211;48.548;2.704;2022-12-07T04:19:16;3.72;;;1.92;;
74679;SDS011;63211;48.548;2.704;2022-12-07T04:21:44;3.97;;;1.63;;
74679;SDS011;63211;48.548;2.704;2022-12-07T04:24:11;4.32;;;1.90;;
74679;SDS011;63211;48.548;2.704;2022-12-07T04:26:38;3.67;;;1.80;;
74679;SDS011;63211;48.548;2.704;2022-12-07T04:29:05;3.90;;;1.80;;
74679;SDS011;63211;48.548;2.704;2022-12-07T04:31:32;4.85;;;2.17;;
74679;SDS011;63211;48.548;2.704;2022-12-07T04:33:58;4.97;;;2.00;;
74679;SDS011;63211;48.548;2.704;2022-12-07T04:36:26;3.60;;;1.63;;
74679;SDS011;63211;48.548;2.704;2022-12-07T04:38:53;3.80;;;1.60;;
74679;SDS011;63211;48.548;2.704;2022-12-07T04:41:20;3.28;;;1.63;;
74679;SDS011;63211;48.548;2.704;2022-12-07T04:43:52;3.10;;;1.48;;
74679;SDS011;63211;48.548;2.704;2022-12-07T04:46:19;3.85;;;1.63;;
74679;SDS011;63211;48.548;2.704;2022-12-07T04:48:45;3.25;;;1.65;;
74679;SDS011;63211;48.548;2.704;2022-12-07T04:51:18;4.45;;;1.70;;
74679;SDS011;63211;48.548;2.704;2022-12-07T04:53:47;5.22;;;1.73;;
74679;SDS011;63211;48.548;2.704;2022-12-07T04:56:14;3.40;;;1.92;;
74679;SDS011;63211;48.548;2.704;2022-12-07T04:58:42;2.42;;;1.13;;
74679;SDS011;63211;48.548;2.704;2022-12-07T05:01:09;3.17;;;1.50;;
74679;SDS011;63211;48.548;2.704;2022-12-07T05:03:35;3.03;;;1.63;;
74679;SDS011;63211;48.548;2.704;2022-12-07T05:06:03;3.95;;;1.85;;
74679;SDS011;63211;48.548;2.704;2022-12-07T05:08:30;3.10;;;1.58;;
74679;SDS011;63211;48.548;2.704;2022-12-07T05:10:59;3.67;;;1.83;;
74679;SDS011;63211;48.548;2.704;2022-12-07T05:13:26;3.58;;;1.83;;
74679;SDS011;63211;48.548;2.704;2022-12-07T05:15:52;2.70;;;1.42;;
74679;SDS011;63211;48.548;2.704;2022-12-07T05:18:19;4.43;;;2.13;;
74679;SDS011;63211;48.548;2.704;2022-12-07T05:20:46;2.95;;;1.42;;
74679;SDS011;63211;48.548;2.704;2022-12-07T05:23:12;2.88;;;1.50;;
74679;SDS011;63211;48.548;2.704;2022-12-07T05:25:39;3.22;;;1.63;;
74679;SDS011;63211;48.548;2.704;2022-12-07T05:28:07;3.40;;;1.75;;
74679;SDS011;63211;48.548;2.704;2022-12-07T05:30:34;3.00;;;1.42;;
74679;SDS011;63211;48.548;2.704;2022-12-07T05:33:01;2.97;;;1.55;;
74679;SDS011;63211;48.548;2.704;2022-12-07T05:35:28;2.60;;;1.55;;
74679;SDS011;63211;48.548;2.704;2022-12-07T05:37:55;3.50;;;1.70;;
74679;SDS011;63211;48.548;2.704;2022-12-07T05:40:22;3.28;;;1.77;;
74679;SDS011;63211;48.548;2.704;2022-12-07T05:42:48;3.00;;;1.60;;
74679;SDS011;63211;48.548;2.704;2022-12-07T05:45:15;3.28;;;1.50;;
74679;SDS011;63211;48.548;2.704;2022-12-07T05:47:42;3.50;;;2.00;;
74679;SDS011;63211;48.548;2.704;2022-12-07T05:50:09;2.08;;;1.42;;
74679;SDS011;63211;48.548;2.704;2022-12-07T05:52:36;3.45;;;1.60;;
74679;SDS011;63211;48.548;2.704;2022-12-07T05:55:02;3.15;;;1.55;;
74679;SDS011;63211;48.548;2.704;2022-12-07T05:57:29;3.33;;;1.48;;
74679;SDS011;63211;48.548;2.704;2022-12-07T05:59:56;3.25;;;1.52;;
74679;SDS011;63211;48.548;2.704;2022-12-07T06:02:23;3.20;;;1.88;;
74679;SDS011;63211;48.548;2.704;2022-12-07T06:04:50;3.35;;;1.55;;
74679;SDS011;63211;48.548;2.704;2022-12-07T06:07:16;3.33;;;1.48;;
74679;SDS011;63211;48.548;2.704;2022-12-07T06:09:43;3.22;;;1.63;;
74679;SDS011;63211;48.548;2.704;2022-12-07T06:12:10;3.15;;;1.75;;
74679;SDS011;63211;48.548;2.704;2022-12-07T06:14:55;3.63;;;1.90;;
74679;SDS011;63211;48.548;2.704;2022-12-07T06:17:23;3.30;;;1.65;;
74679;SDS011;63211;48.548;2.704;2022-12-07T06:19:50;5.78;;;1.60;;
74679;SDS011;63211;48.548;2.704;2022-12-07T06:22:16;3.10;;;1.38;;
74679;SDS011;63211;48.548;2.704;2022-12-07T06:24:43;2.38;;;1.63;;
74679;SDS011;63211;48.548;2.704;2022-12-07T06:27:10;4.22;;;1.30;;
74679;SDS011;63211;48.548;2.704;2022-12-07T06:29:36;2.88;;;1.58;;
74679;SDS011;63211;48.548;2.704;2022-12-07T06:32:03;3.65;;;1.50;;
74679;SDS011;63211;48.548;2.704;2022-12-07T06:34:32;2.42;;;1.33;;
74679;SDS011;63211;48.548;2.704;2022-12-07T06:36:58;3.55;;;1.58;;
74679;SDS011;63211;48.548;2.704;2022-12-07T06:39:26;3.08;;;1.70;;
74679;SDS011;63211;48.548;2.704;2022-12-07T06:41:53;2.85;;;1.50;;
74679;SDS011;63211;48.548;2.704;2022-12-07T06:44:21;2.85;;;1.63;;
74679;SDS011;63211;48.548;2.704;2022-12-07T06:46:48;3.05;;;1.70;;
74679;SDS011;63211;48.548;2.704;2022-12-07T06:49:16;2.35;;;1.23;;
74679;SDS011;63211;48.548;2.704;2022-12-07T06:51:44;2.50;;;1.25;;
74679;SDS011;63211;48.548;2.704;2022-12-07T06:54:11;3.45;;;1.38;;
74679;SDS011;63211;48.548;2.704;2022-12-07T06:56:39;3.40;;;1.70;;
74679;SDS011;63211;48.548;2.704;2022-12-07T06:59:06;2.17;;;1.35;;
74679;SDS011;63211;48.548;2.704;2022-12-07T07:01:34;3.80;;;1.70;;
74679;SDS011;63211;48.548;2.704;2022-12-07T07:04:01;2.55;;;1.30;;
74679;SDS011;63211;48.548;2.704;2022-12-07T07:06:28;3.60;;;1.70;;
74679;SDS011;63211;48.548;2.704;2022-12-07T07:08:56;2.13;;;1.20;;
74679;SDS011;63211;48.548;2.704;2022-12-07T07:11:23;2.40;;;1.38;;
74679;SDS011;63211;48.548;2.704;2022-12-07T07:13:49;2.95;;;1.25;;
74679;SDS011;63211;48.548;2.704;2022-12-07T07:16:16;3.28;;;1.80;;
74679;SDS011;63211;48.548;2.704;2022-12-07T07:18:43;3.25;;;1.60;;
74679;SDS011;63211;48.548;2.704;2022-12-07T07:21:09;2.25;;;1.30;;
74679;SDS011;63211;48.548;2.704;2022-12-07T07:23:36;2.47;;;1.48;;
74679;SDS011;63211;48.548;2.704;2022-12-07T07:26:04;2.65;;;1.27;;
74679;SDS011;63211;48.548;2.704;2022-12-07T07:28:31;2.80;;;1.30;;
74679;SDS011;63211;48.548;2.704;2022-12-07T07:30:57;2.15;;;1.33;;
74679;SDS011;63211;48.548;2.704;2022-12-07T07:33:24;4.00;;;1.67;;
74679;SDS011;63211;48.548;2.704;2022-12-07T07:35:50;2.83;;;1.20;;
74679;SDS011;63211;48.548;2.704;2022-12-07T07:38:17;3.15;;;1.48;;
74679;SDS011;63211;48.548;2.704;2022-12-07T07:40:44;4.60;;;2.30;;
74679;SDS011;63211;48.548;2.704;2022-12-07T07:43:12;4.00;;;2.13;;
74679;SDS011;63211;48.548;2.704;2022-12-07T07:45:38;6.65;;;2.22;;
74679;SDS011;63211;48.548;2.704;2022-12-07T07:48:05;9.13;;;3.25;;
74679;SDS011;63211;48.548;2.704;2022-12-07T07:50:32;5.85;;;2.45;;
74679;SDS011;63211;48.548;2.704;2022-12-07T07:52:59;5.00;;;2.50;;
74679;SDS011;63211;48.548;2.704;2022-12-07T07:55:25;5.03;;;2.50;;
74679;SDS011;63211;48.548;2.704;2022-12-07T07:57:52;8.32;;;3.22;;
74679;SDS011;63211;48.548;2.704;2022-12-07T08:00:22;5.60;;;2.88;;
74679;SDS011;63211;48.548;2.704;2022-12-07T08:02:49;5.32;;;2.35;;
74679;SDS011;63211;48.548;2.704;2022-12-07T08:05:15;7.95;;;2.42;;
74679;SDS011;63211;48.548;2.704;2022-12-07T08:07:42;5.18;;;2.28;;
74679;SDS011;63211;48.548;2.704;2022-12-07T08:10:10;5.07;;;2.05;;
74679;SDS011;63211;48.548;2.704;2022-12-07T08:12:38;6.57;;;2.30;;
74679;SDS011;63211;48.548;2.704;2022-12-07T08:15:28;3.88;;;1.92;;
74679;SDS011;63211;48.548;2.704;2022-12-07T08:17:56;6.97;;;2.45;;
74679;SDS011;63211;48.548;2.704;2022-12-07T08:20:23;4.20;;;1.75;;
74679;SDS011;63211;48.548;2.704;2022-12-07T08:22:49;2.92;;;1.77;;
74679;SDS011;63211;48.548;2.704;2022-12-07T08:25:16;5.25;;;2.05;;
74679;SDS011;63211;48.548;2.704;2022-12-07T08:27:43;4.75;;;2.00;;
74679;SDS011;63211;48.548;2.704;2022-12-07T08:30:10;3.50;;;1.70;;
74679;SDS011;63211;48.548;2.704;2022-12-07T08:32:38;3.90;;;1.90;;
74679;SDS011;63211;48.548;2.704;2022-12-07T08:35:05;7.53;;;1.65;;
74679;SDS011;63211;48.548;2.704;2022-12-07T08:37:33;2.65;;;1.70;;
74679;SDS011;63211;48.548;2.704;2022-12-07T08:39:59;5.82;;;1.73;;
74679;SDS011;63211;48.548;2.704;2022-12-07T08:42:26;4.70;;;2.00;;
74679;SDS011;63211;48.548;2.704;2022-12-07T08:44:55;2.75;;;1.45;;
74679;SDS011;63211;48.548;2.704;2022-12-07T08:47:22;5.30;;;2.00;;
74679;SDS011;63211;48.548;2.704;2022-12-07T08:49:52;3.08;;;1.52;;
74679;SDS011;63211;48.548;2.704;2022-12-07T08:52:20;4.65;;;1.85;;
74679;SDS011;63211;48.548;2.704;2022-12-07T08:54:47;3.17;;;1.63;;
74679;SDS011;63211;48.548;2.704;2022-12-07T08:57:14;5.25;;;2.00;;
74679;SDS011;63211;48.548;2.704;2022-12-07T08:59:41;3.47;;;1.83;;
74679;SDS011;63211;48.548;2.704;2022-12-07T09:02:07;3.75;;;1.58;;
74679;SDS011;63211;48.548;2.704;2022-12-07T09:04:35;3.47;;;1.80;;
74679;SDS011;63211;48.548;2.704;2022-12-07T09:07:03;3.60;;;1.63;;
74679;SDS011;63211;48.548;2.704;2022-12-07T09:09:30;4.78;;;2.15;;
74679;SDS011;63211;48.548;2.704;2022-12-07T09:11:56;3.55;;;1.98;;
74679;SDS011;63211;48.548;2.704;2022-12-07T09:14:23;2.33;;;1.40;;
74679;SDS011;63211;48.548;2.704;2022-12-07T09:16:50;4.40;;;2.10;;
74679;SDS011;63211;48.548;2.704;2022-12-07T09:19:17;4.20;;;2.00;;
74679;SDS011;63211;48.548;2.704;2022-12-07T09:21:43;2.70;;;1.55;;
74679;SDS011;63211;48.548;2.704;2022-12-07T09:24:12;2.60;;;1.55;;
74679;SDS011;63211;48.548;2.704;2022-12-07T09:26:39;3.38;;;2.00;;
74679;SDS011;63211;48.548;2.704;2022-12-07T09:29:05;3.35;;;1.95;;
74679;SDS011;63211;48.548;2.704;2022-12-07T09:31:32;3.28;;;1.58;;
74679;SDS011;63211;48.548;2.704;2022-12-07T09:33:59;3.15;;;1.70;;
74679;SDS011;63211;48.548;2.704;2022-12-07T09:36:27;3.85;;;2.00;;
74679;SDS011;63211;48.548;2.704;2022-12-07T09:38:54;3.67;;;2.28;;
74679;SDS011;63211;48.548;2.704;2022-12-07T09:41:22;4.35;;;2.10;;
74679;SDS011;63211;48.548;2.704;2022-12-07T09:43:51;3.72;;;1.85;;
74679;SDS011;63211;48.548;2.704;2022-12-07T09:46:19;4.65;;;2.40;;
74679;SDS011;63211;48.548;2.704;2022-12-07T09:48:47;4.05;;;2.08;;
74679;SDS011;63211;48.548;2.704;2022-12-07T09:51:16;3.42;;;1.63;;
74679;SDS011;63211;48.548;2.704;2022-12-07T09:53:45;3.47;;;1.70;;
74679;SDS011;63211;48.548;2.704;2022-12-07T09:56:13;4.32;;;2.03;;
74679;SDS011;63211;48.548;2.704;2022-12-07T09:58:42;4.45;;;1.50;;
74679;SDS011;63211;48.548;2.704;2022-12-07T10:01:11;3.08;;;1.58;;
74679;SDS011;63211;48.548;2.704;2022-12-07T10:03:41;3.15;;;1.50;;
74679;SDS011;63211;48.548;2.704;2022-12-07T10:06:11;3.47;;;1.83;;
74679;SDS011;63211;48.548;2.704;2022-12-07T10:08:39;3.67;;;1.83;;
74679;SDS011;63211;48.548;2.704;2022-12-07T10:11:06;3.25;;;1.30;;
74679;SDS011;63211;48.548;2.704;2022-12-07T10:13:36;2.72;;;1.70;;
74679;SDS011;63211;48.548;2.704;2022-12-07T10:16:05;2.72;;;1.60;;
74679;SDS011;63211;48.548;2.704;2022-12-07T10:18:51;6.43;;;1.98;;
74679;SDS011;63211;48.548;2.704;2022-12-07T10:21:19;3.67;;;1.85;;
74679;SDS011;63211;48.548;2.704;2022-12-07T10:24:01;3.40;;;2.00;;
74679;SDS011;63211;48.548;2.704;2022-12-07T10:26:30;4.50;;;2.20;;
74679;SDS011;63211;48.548;2.704;2022-12-07T10:28:59;4.20;;;2.35;;
74679;SDS011;63211;48.548;2.704;2022-12-07T10:31:29;3.97;;;2.65;;
74679;SDS011;63211;48.548;2.704;2022-12-07T10:33:56;3.67;;;2.28;;
74679;SDS011;63211;48.548;2.704;2022-12-07T10:36:25;4.63;;;2.20;;
74679;SDS011;63211;48.548;2.704;2022-12-07T10:38:53;4.80;;;2.45;;
74679;SDS011;63211;48.548;2.704;2022-12-07T10:41:26;5.28;;;2.05;;
74679;SDS011;63211;48.548;2.704;2022-12-07T10:43:53;3.67;;;2.22;;
74679;SDS011;63211;48.548;2.704;2022-12-07T10:46:26;4.20;;;2.47;;
74679;SDS011;63211;48.548;2.704;2022-12-07T10:49:08;3.90;;;2.20;;
74679;SDS011;63211;48.548;2.704;2022-12-07T10:51:49;4.15;;;2.20;;
74679;SDS011;63211;48.548;2.704;2022-12-07T10:54:23;4.85;;;2.50;;
74679;SDS011;63211;48.548;2.704;2022-12-07T10:57:02;5.03;;;2.33;;
74679;SDS011;63211;48.548;2.704;2022-12-07T11:02:23;3.85;;;2.00;;
74679;SDS011;63211;48.548;2.704;2022-12-07T11:05:02;3.50;;;2.35;;
74679;SDS011;63211;48.548;2.704;2022-12-07T11:07:43;4.28;;;2.20;;
74679;SDS011;63211;48.548;2.704;2022-12-07T11:10:19;4.47;;;2.45;;
74679;SDS011;63211;48.548;2.704;2022-12-07T11:13:04;4.07;;;2.35;;
74679;SDS011;63211;48.548;2.704;2022-12-07T11:15:48;5.72;;;2.60;;
74679;SDS011;63211;48.548;2.704;2022-12-07T11:18:26;3.97;;;2.20;;
74679;SDS011;63211;48.548;2.704;2022-12-07T11:20:57;4.38;;;2.08;;
74679;SDS011;63211;48.548;2.704;2022-12-07T11:23:36;5.18;;;2.45;;
74679;SDS011;63211;48.548;2.704;2022-12-07T11:26:13;4.53;;;2.60;;
74679;SDS011;63211;48.548;2.704;2022-12-07T11:28:58;6.43;;;2.45;;
74679;SDS011;63211;48.548;2.704;2022-12-07T11:31:41;3.72;;;2.30;;
74679;SDS011;63211;48.548;2.704;2022-12-07T11:34:22;6.05;;;2.55;;
74679;SDS011;63211;48.548;2.704;2022-12-07T11:36:57;5.90;;;2.28;;
74679;SDS011;63211;48.548;2.704;2022-12-07T11:39:30;3.85;;;2.28;;
74679;SDS011;63211;48.548;2.704;2022-12-07T11:42:03;4.43;;;1.95;;
74679;SDS011;63211;48.548;2.704;2022-12-07T11:44:36;3.47;;;2.10;;
74679;SDS011;63211;48.548;2.704;2022-12-07T11:47:12;4.57;;;2.53;;
74679;SDS011;63211;48.548;2.704;2022-12-07T11:49:50;3.63;;;2.00;;
74679;SDS011;63211;48.548;2.704;2022-12-07T11:52:24;3.97;;;2.00;;
74679;SDS011;63211;48.548;2.704;2022-12-07T11:54:56;4.40;;;2.40;;
74679;SDS011;63211;48.548;2.704;2022-12-07T11:57:27;4.93;;;2.78;;
74679;SDS011;63211;48.548;2.704;2022-12-07T12:00:01;3.13;;;2.22;;
74679;SDS011;63211;48.548;2.704;2022-12-07T12:02:32;4.45;;;2.60;;
74679;SDS011;63211;48.548;2.704;2022-12-07T12:05:12;4.50;;;2.63;;
74679;SDS011;63211;48.548;2.704;2022-12-07T12:07:42;4.63;;;2.53;;
74679;SDS011;63211;48.548;2.704;2022-12-07T12:10:15;5.00;;;2.72;;
74679;SDS011;63211;48.548;2.704;2022-12-07T12:12:54;5.10;;;2.72;;
74679;SDS011;63211;48.548;2.704;2022-12-07T12:15:48;4.18;;;2.33;;
74679;SDS011;63211;48.548;2.704;2022-12-07T12:18:36;4.07;;;2.33;;
74679;SDS011;63211;48.548;2.704;2022-12-07T12:21:21;4.25;;;2.33;;
74679;SDS011;63211;48.548;2.704;2022-12-07T12:23:54;4.32;;;2.42;;
74679;SDS011;63211;48.548;2.704;2022-12-07T12:26:26;3.55;;;2.30;;
74679;SDS011;63211;48.548;2.704;2022-12-07T12:28:56;5.25;;;2.78;;
74679;SDS011;63211;48.548;2.704;2022-12-07T12:31:33;3.72;;;2.15;;
74679;SDS011;63211;48.548;2.704;2022-12-07T12:34:04;4.05;;;2.08;;
74679;SDS011;63211;48.548;2.704;2022-12-07T12:37:00;5.75;;;2.25;;
74679;SDS011;63211;48.548;2.704;2022-12-07T12:39:27;5.18;;;2.60;;
74679;SDS011;63211;48.548;2.704;2022-12-07T12:41:59;4.28;;;2.10;;
74679;SDS011;63211;48.548;2.704;2022-12-07T12:50:24;5.00;;;2.47;;
74679;SDS011;63211;48.548;2.704;2022-12-07T12:52:55;4.75;;;2.35;;
74679;SDS011;63211;48.548;2.704;2022-12-07T12:58:31;4.63;;;2.40;;
74679;SDS011;63211;48.548;2.704;2022-12-07T13:04:13;5.32;;;2.25;;
74679;SDS011;63211;48.548;2.704;2022-12-07T13:07:01;3.90;;;2.10;;
74679;SDS011;63211;48.548;2.704;2022-12-07T13:09:30;4.07;;;2.40;;
74679;SDS011;63211;48.548;2.704;2022-12-07T13:12:00;4.63;;;2.25;;
74679;SDS011;63211;48.548;2.704;2022-12-07T13:23:10;3.25;;;1.98;;
74679;SDS011;63211;48.548;2.704;2022-12-07T13:25:43;3.45;;;2.03;;
74679;SDS011;63211;48.548;2.704;2022-12-07T13:28:15;4.93;;;2.70;;
74679;SDS011;63211;48.548;2.704;2022-12-07T13:30:49;4.97;;;2.38;;
74679;SDS011;63211;48.548;2.704;2022-12-07T13:33:25;3.63;;;2.20;;
74679;SDS011;63211;48.548;2.704;2022-12-07T13:35:55;2.65;;;1.55;;
74679;SDS011;63211;48.548;2.704;2022-12-07T13:38:26;5.28;;;2.17;;
74679;SDS011;63211;48.548;2.704;2022-12-07T13:41:12;4.55;;;2.10;;
74679;SDS011;63211;48.548;2.704;2022-12-07T13:43:48;4.65;;;2.40;;
74679;SDS011;63211;48.548;2.704;2022-12-07T13:48:46;4.35;;;2.30;;
74679;SDS011;63211;48.548;2.704;2022-12-07T13:51:17;3.78;;;2.30;;
74679;SDS011;63211;48.548;2.704;2022-12-07T13:53:47;4.28;;;2.15;;
74679;SDS011;63211;48.548;2.704;2022-12-07T13:56:16;4.38;;;2.45;;
74679;SDS011;63211;48.548;2.704;2022-12-07T13:58:42;4.63;;;2.13;;
74679;SDS011;63211;48.548;2.704;2022-12-07T14:01:09;3.92;;;1.95;;
74679;SDS011;63211;48.548;2.704;2022-12-07T14:03:38;4.30;;;2.60;;
74679;SDS011;63211;48.548;2.704;2022-12-07T14:09:05;5.65;;;2.28;;
74679;SDS011;63211;48.548;2.704;2022-12-07T14:11:34;4.95;;;2.35;;
74679;SDS011;63211;48.548;2.704;2022-12-07T14:14:02;4.10;;;2.10;;
74679;SDS011;63211;48.548;2.704;2022-12-07T14:16:30;4.15;;;2.22;;
74679;SDS011;63211;48.548;2.704;2022-12-07T14:19:00;3.63;;;1.90;;
74679;SDS011;63211;48.548;2.704;2022-12-07T14:21:29;4.90;;;2.20;;
74679;SDS011;63211;48.548;2.704;2022-12-07T14:24:10;4.53;;;2.30;;
74679;SDS011;63211;48.548;2.704;2022-12-07T14:26:42;3.30;;;2.25;;
74679;SDS011;63211;48.548;2.704;2022-12-07T14:29:18;4.18;;;2.25;;
74679;SDS011;63211;48.548;2.704;2022-12-07T14:31:46;3.72;;;2.13;;
74679;SDS011;63211;48.548;2.704;2022-12-07T14:34:13;3.42;;;1.90;;
74679;SDS011;63211;48.548;2.704;2022-12-07T14:36:40;3.85;;;1.90;;
74679;SDS011;63211;48.548;2.704;2022-12-07T14:39:06;3.63;;;2.08;;
74679;SDS011;63211;48.548;2.704;2022-12-07T14:41:33;5.47;;;2.05;;
74679;SDS011;63211;48.548;2.704;2022-12-07T14:44:20;4.53;;;2.00;;
74679;SDS011;63211;48.548;2.704;2022-12-07T14:46:47;3.38;;;2.08;;
74679;SDS011;63211;48.548;2.704;2022-12-07T14:49:15;3.85;;;1.80;;
74679;SDS011;63211;48.548;2.704;2022-12-07T14:51:42;4.20;;;2.08;;
74679;SDS011;63211;48.548;2.704;2022-12-07T14:54:12;4.03;;;2.17;;
74679;SDS011;63211;48.548;2.704;2022-12-07T14:56:42;3.15;;;1.70;;
74679;SDS011;63211;48.548;2.704;2022-12-07T14:59:09;4.18;;;1.92;;
74679;SDS011;63211;48.548;2.704;2022-12-07T15:01:38;3.80;;;2.30;;
74679;SDS011;63211;48.548;2.704;2022-12-07T15:04:05;4.18;;;2.20;;
74679;SDS011;63211;48.548;2.704;2022-12-07T15:06:31;3.20;;;1.85;;
74679;SDS011;63211;48.548;2.704;2022-12-07T15:08:58;3.35;;;1.90;;
74679;SDS011;63211;48.548;2.704;2022-12-07T15:11:25;4.57;;;2.22;;
74679;SDS011;63211;48.548;2.704;2022-12-07T15:13:52;4.35;;;2.20;;
74679;SDS011;63211;48.548;2.704;2022-12-07T15:16:38;3.58;;;2.10;;
74679;SDS011;63211;48.548;2.704;2022-12-07T15:19:06;5.45;;;1.85;;
74679;SDS011;63211;48.548;2.704;2022-12-07T15:21:38;3.40;;;1.85;;
74679;SDS011;63211;48.548;2.704;2022-12-07T15:24:05;3.85;;;1.63;;
74679;SDS011;63211;48.548;2.704;2022-12-07T15:26:32;3.90;;;2.00;;
74679;SDS011;63211;48.548;2.704;2022-12-07T15:28:58;3.40;;;1.90;;
74679;SDS011;63211;48.548;2.704;2022-12-07T15:31:25;3.38;;;1.63;;
74679;SDS011;63211;48.548;2.704;2022-12-07T15:33:53;3.85;;;1.83;;
74679;SDS011;63211;48.548;2.704;2022-12-07T15:36:20;3.58;;;1.70;;